createdAt,value
2019-02-22T00:00:05.017Z,1019.93
2019-02-22T00:01:04.991Z,1019.85
2019-02-22T00:02:04.968Z,1019.95
2019-02-22T00:03:04.951Z,1019.94
2019-02-22T00:04:04.927Z,1019.99
2019-02-22T00:05:04.903Z,1020.00
2019-02-22T00:06:04.878Z,1020.01
2019-02-22T00:07:04.858Z,1020.06
2019-02-22T00:08:04.832Z,1020.04
2019-02-22T00:09:04.809Z,1020.05
2019-02-22T00:10:04.789Z,1020.09
2019-02-22T00:11:04.776Z,1020.08
2019-02-22T00:12:04.743Z,1020.05
2019-02-22T00:13:04.725Z,1020.10
2019-02-22T00:14:04.703Z,1020.16
2019-02-22T00:15:04.682Z,1020.14
2019-02-22T00:16:04.657Z,1020.17
2019-02-22T00:17:04.632Z,1020.16
2019-02-22T00:18:04.737Z,1020.17
2019-02-22T00:19:04.592Z,1020.16
2019-02-22T00:20:04.567Z,1020.17
2019-02-22T00:21:04.545Z,1020.26
2019-02-22T00:22:04.525Z,1020.26
2019-02-22T00:23:04.504Z,1020.26
2019-02-22T00:24:04.476Z,1020.32
2019-02-22T00:25:04.458Z,1020.27
2019-02-22T00:26:04.432Z,1020.32
2019-02-22T00:27:04.413Z,1020.28
2019-02-22T00:28:04.386Z,1020.33
2019-02-22T00:29:04.365Z,1020.33
2019-02-22T00:30:04.345Z,1020.34
2019-02-22T00:31:04.322Z,1020.36
2019-02-22T00:32:04.303Z,1020.41
2019-02-22T00:33:04.281Z,1020.35
2019-02-22T00:34:04.294Z,1020.39
2019-02-22T00:35:04.329Z,1020.38
2019-02-22T00:36:04.289Z,1020.37
2019-02-22T00:37:04.273Z,1020.38
2019-02-22T00:38:04.173Z,1020.42
2019-02-22T00:39:04.151Z,1020.44
2019-02-22T00:40:04.128Z,1020.43
2019-02-22T00:41:04.105Z,1020.49
2019-02-22T00:42:04.081Z,1020.49
2019-02-22T00:43:04.071Z,1020.44
2019-02-22T00:44:04.034Z,1020.50
2019-02-22T00:45:04.009Z,1020.46
2019-02-22T00:46:03.989Z,1020.48
2019-02-22T00:47:03.969Z,1020.59
2019-02-22T00:48:03.958Z,1020.57
2019-02-22T00:49:03.924Z,1020.59
2019-02-22T00:50:03.901Z,1020.60
2019-02-22T00:51:03.889Z,1020.59
2019-02-22T00:52:03.857Z,1020.63
2019-02-22T00:53:03.837Z,1020.66
2019-02-22T00:54:03.813Z,1020.68
2019-02-22T00:55:03.793Z,1020.64
2019-02-22T00:56:03.775Z,1020.66
2019-02-22T00:57:03.747Z,1020.65
2019-02-22T00:58:03.724Z,1020.67
2019-02-22T00:59:03.702Z,1020.63
2019-02-22T01:00:03.683Z,1020.68
2019-02-22T01:01:03.657Z,1020.65
2019-02-22T01:02:03.635Z,1020.72
2019-02-22T01:03:03.609Z,1020.68
2019-02-22T01:04:03.595Z,1020.74
2019-02-22T01:05:03.571Z,1020.75
2019-02-22T01:06:03.547Z,1020.77
2019-02-22T01:07:03.530Z,1020.74
2019-02-22T01:08:03.495Z,1020.79
2019-02-22T01:09:03.481Z,1020.79
2019-02-22T01:10:03.459Z,1020.80
2019-02-22T01:11:03.437Z,1020.85
2019-02-22T01:12:03.412Z,1020.84
2019-02-22T01:13:03.393Z,1020.87
2019-02-22T01:14:03.365Z,1020.88
2019-02-22T01:15:03.348Z,1020.95
2019-02-22T01:16:03.327Z,1020.91
2019-02-22T01:17:03.305Z,1020.96
2019-02-22T01:18:03.280Z,1020.92
2019-02-22T01:19:03.255Z,1020.98
2019-02-22T01:20:03.245Z,1021.00
2019-02-22T01:21:03.222Z,1021.04
2019-02-22T01:22:03.193Z,1021.02
2019-02-22T01:23:03.172Z,1021.11
2019-02-22T01:24:03.147Z,1021.10
2019-02-22T01:25:03.127Z,1021.12
2019-02-22T01:26:03.102Z,1021.16
2019-02-22T01:27:03.082Z,1021.18
2019-02-22T01:28:03.055Z,1021.22
2019-02-22T01:29:03.088Z,1021.25
2019-02-22T01:30:03.026Z,1021.33
2019-02-22T01:31:03.006Z,1021.29
2019-02-22T01:32:02.966Z,1021.33
2019-02-22T01:33:02.948Z,1021.35
2019-02-22T01:34:03.026Z,1021.34
2019-02-22T01:35:02.906Z,1021.37
2019-02-22T01:36:02.879Z,1021.40
2019-02-22T01:37:02.864Z,1021.42
2019-02-22T01:38:02.836Z,1021.43
2019-02-22T01:39:02.811Z,1021.41
2019-02-22T01:40:02.789Z,1021.43
2019-02-22T01:41:02.777Z,1021.43
2019-02-22T01:42:02.747Z,1021.41
2019-02-22T01:43:02.729Z,1021.46
2019-02-22T01:44:02.702Z,1021.48
2019-02-22T01:45:02.686Z,1021.45
2019-02-22T01:46:02.662Z,1021.50
2019-02-22T01:47:02.632Z,1021.49
2019-02-22T01:48:02.618Z,1021.56
2019-02-22T01:49:02.587Z,1021.52
2019-02-22T01:50:02.573Z,1021.59
2019-02-22T01:51:02.560Z,1021.61
2019-02-22T01:52:02.526Z,1021.62
2019-02-22T01:53:02.497Z,1021.65
2019-02-22T01:54:02.484Z,1021.67
2019-02-22T01:55:02.456Z,1021.71
2019-02-22T01:56:02.434Z,1021.66
2019-02-22T01:57:02.410Z,1021.69
2019-02-22T01:58:02.387Z,1021.67
2019-02-22T01:59:02.370Z,1021.73
2019-02-22T02:00:02.356Z,1021.76
2019-02-22T02:01:02.323Z,1021.75
2019-02-22T02:02:02.302Z,1021.76
2019-02-22T02:03:02.278Z,1021.78
2019-02-22T02:04:02.257Z,1021.79
2019-02-22T02:05:02.235Z,1021.79
2019-02-22T02:06:02.213Z,1021.81
2019-02-22T02:07:02.189Z,1021.80
2019-02-22T02:08:02.170Z,1021.83
2019-02-22T02:09:02.141Z,1021.86
2019-02-22T02:10:02.120Z,1021.82
2019-02-22T02:11:02.100Z,1021.81
2019-02-22T02:12:02.244Z,1021.84
2019-02-22T02:13:02.053Z,1021.81
2019-02-22T02:14:02.030Z,1021.85
2019-02-22T02:15:02.010Z,1021.87
2019-02-22T02:16:01.992Z,1021.87
2019-02-22T02:17:01.966Z,1021.90
2019-02-22T02:18:01.946Z,1021.93
2019-02-22T02:19:01.924Z,1021.91
2019-02-22T02:20:02.029Z,1021.92
2019-02-22T02:21:01.879Z,1021.93
2019-02-22T02:22:01.855Z,1021.97
2019-02-22T02:23:01.834Z,1022.01
2019-02-22T02:24:01.808Z,1022.02
2019-02-22T02:25:01.788Z,1022.03
2019-02-22T02:26:01.768Z,1022.09
2019-02-22T02:27:01.744Z,1022.09
2019-02-22T02:28:01.723Z,1022.14
2019-02-22T02:29:01.694Z,1022.14
2019-02-22T02:30:01.728Z,1022.13
2019-02-22T02:31:01.659Z,1022.14
2019-02-22T02:32:01.640Z,1022.20
2019-02-22T02:33:01.618Z,1022.18
2019-02-22T02:34:01.587Z,1022.18
2019-02-22T02:35:01.563Z,1022.20
2019-02-22T02:36:01.550Z,1022.20
2019-02-22T02:37:01.516Z,1022.24
2019-02-22T02:38:01.496Z,1022.30
2019-02-22T02:39:01.476Z,1022.32
2019-02-22T02:40:01.447Z,1022.32
2019-02-22T02:41:08.450Z,1022.38
2019-02-22T02:42:01.412Z,1022.37
2019-02-22T02:43:01.393Z,1022.38
2019-02-22T02:44:01.360Z,1022.40
2019-02-22T02:45:01.345Z,1022.40
2019-02-22T02:46:01.317Z,1022.38
2019-02-22T02:47:01.307Z,1022.43
2019-02-22T02:48:01.273Z,1022.39
2019-02-22T02:49:01.252Z,1022.44
2019-02-22T02:50:01.228Z,1022.44
2019-02-22T02:51:01.201Z,1022.44
2019-02-22T02:52:01.183Z,1022.46
2019-02-22T02:53:01.161Z,1022.47
2019-02-22T02:54:01.148Z,1022.48
2019-02-22T02:55:01.141Z,1022.50
2019-02-22T02:56:01.098Z,1022.52
2019-02-22T02:57:01.075Z,1022.58
2019-02-22T02:58:01.049Z,1022.54
2019-02-22T02:59:01.048Z,1022.52
2019-02-22T03:00:01.007Z,1022.59
2019-02-22T03:01:00.984Z,1022.59
2019-02-22T03:02:00.962Z,1022.67
2019-02-22T03:03:00.936Z,1022.68
2019-02-22T03:04:00.915Z,1022.73
2019-02-22T03:05:00.901Z,1022.71
2019-02-22T03:06:00.880Z,1022.75
2019-02-22T03:07:00.857Z,1022.75
2019-02-22T03:08:00.823Z,1022.75
2019-02-22T03:09:00.801Z,1022.76
2019-02-22T03:10:00.813Z,1022.76
2019-02-22T03:11:00.761Z,1022.76
2019-02-22T03:12:00.733Z,1022.73
2019-02-22T03:13:00.719Z,1022.75
2019-02-22T03:14:00.688Z,1022.75
2019-02-22T03:15:00.765Z,1022.78
2019-02-22T03:16:00.648Z,1022.77
2019-02-22T03:17:00.625Z,1022.79
2019-02-22T03:18:00.601Z,1022.77
2019-02-22T03:19:00.577Z,1022.81
2019-02-22T03:20:00.559Z,1022.86
2019-02-22T03:21:00.533Z,1022.88
2019-02-22T03:22:00.518Z,1022.96
2019-02-22T03:23:00.491Z,1022.97
2019-02-22T03:24:00.465Z,1022.97
2019-02-22T03:25:00.447Z,1023.03
2019-02-22T03:26:00.421Z,1023.03
2019-02-22T03:27:00.423Z,1023.07
2019-02-22T03:28:00.384Z,1023.09
2019-02-22T03:29:00.368Z,1023.05
2019-02-22T03:30:00.693Z,1023.07
2019-02-22T03:31:00.311Z,1023.07
2019-02-22T03:32:00.294Z,1023.15
2019-02-22T03:33:00.262Z,1023.09
2019-02-22T03:34:00.247Z,1023.09
2019-02-22T03:35:00.522Z,1023.08
2019-02-22T03:36:00.201Z,1023.16
2019-02-22T03:37:00.179Z,1023.16
2019-02-22T03:38:00.158Z,1023.19
2019-02-22T03:39:00.130Z,1023.24
2019-02-22T03:40:00.361Z,1023.25
2019-02-22T03:41:00.092Z,1023.28
2019-02-22T03:42:00.068Z,1023.28
2019-02-22T03:43:00.053Z,1023.37
2019-02-22T03:44:00.022Z,1023.38
2019-02-22T03:44:59.995Z,1023.41
2019-02-22T03:45:59.970Z,1023.45
2019-02-22T03:46:59.950Z,1023.49
2019-02-22T03:47:59.930Z,1023.51
2019-02-22T03:48:59.908Z,1023.59
2019-02-22T03:49:59.884Z,1023.63
2019-02-22T03:50:59.869Z,1023.63
2019-02-22T03:51:59.844Z,1023.67
2019-02-22T03:52:59.824Z,1023.68
2019-02-22T03:53:59.793Z,1023.73
2019-02-22T03:54:59.769Z,1023.74
2019-02-22T03:55:59.750Z,1023.70
2019-02-22T03:56:59.725Z,1023.76
2019-02-22T03:57:59.702Z,1023.76
2019-02-22T03:58:59.690Z,1023.82
2019-02-22T03:59:59.663Z,1023.81
2019-02-22T04:00:59.641Z,1023.86
2019-02-22T04:01:59.614Z,1023.88
2019-02-22T04:02:59.603Z,1023.83
2019-02-22T04:03:59.569Z,1023.90
2019-02-22T04:04:59.543Z,1023.93
2019-02-22T04:05:59.525Z,1023.94
2019-02-22T04:06:59.503Z,1023.94
2019-02-22T04:07:59.483Z,1023.97
2019-02-22T04:08:59.456Z,1024.05
2019-02-22T04:09:59.435Z,1024.04
2019-02-22T04:10:59.418Z,1024.11
2019-02-22T04:11:59.388Z,1024.15
2019-02-22T04:12:59.362Z,1024.18
2019-02-22T04:13:59.340Z,1024.17
2019-02-22T04:14:59.319Z,1024.24
2019-02-22T04:15:59.296Z,1024.30
2019-02-22T04:16:59.274Z,1024.36
2019-02-22T04:17:59.255Z,1024.38
2019-02-22T04:18:59.232Z,1024.40
2019-02-22T04:19:59.208Z,1024.38
2019-02-22T04:20:59.185Z,1024.44
2019-02-22T04:21:59.159Z,1024.51
2019-02-22T04:22:59.141Z,1024.53
2019-02-22T04:23:59.128Z,1024.58
2019-02-22T04:24:59.090Z,1024.62
2019-02-22T04:25:59.067Z,1024.62
2019-02-22T04:26:59.042Z,1024.68
2019-02-22T04:27:59.020Z,1024.83
2019-02-22T04:28:59.027Z,1024.80
2019-02-22T04:29:58.978Z,1024.81
2019-02-22T04:30:58.957Z,1024.82
2019-02-22T04:31:58.934Z,1024.91
2019-02-22T04:32:58.910Z,1024.94
2019-02-22T04:33:58.885Z,1024.93
2019-02-22T04:34:58.864Z,1025.00
2019-02-22T04:35:58.838Z,1024.97
2019-02-22T04:36:58.816Z,1024.97
2019-02-22T04:37:58.794Z,1025.04
2019-02-22T04:38:58.770Z,1025.05
2019-02-22T04:39:58.748Z,1025.10
2019-02-22T04:40:58.731Z,1025.19
2019-02-22T04:41:58.705Z,1025.20
2019-02-22T04:42:58.682Z,1025.23
2019-02-22T04:43:58.658Z,1025.21
2019-02-22T04:44:58.632Z,1025.23
2019-02-22T04:45:58.618Z,1025.37
2019-02-22T04:46:58.593Z,1025.35
2019-02-22T04:47:58.567Z,1025.36
2019-02-22T04:48:58.544Z,1025.39
2019-02-22T04:49:58.520Z,1025.41
2019-02-22T04:50:58.505Z,1025.45
2019-02-22T04:51:58.474Z,1025.49
2019-02-22T04:52:58.463Z,1025.51
2019-02-22T04:53:58.438Z,1025.52
2019-02-22T04:54:58.409Z,1025.57
2019-02-22T04:55:58.394Z,1025.60
2019-02-22T04:56:58.357Z,1025.64
2019-02-22T04:57:58.337Z,1025.67
2019-02-22T04:58:58.314Z,1025.68
2019-02-22T04:59:58.293Z,1025.69
2019-02-22T05:00:58.269Z,1025.74
2019-02-22T05:01:58.248Z,1025.76
2019-02-22T05:02:58.222Z,1025.74
2019-02-22T05:03:58.201Z,1025.79
2019-02-22T05:04:58.169Z,1025.81
2019-02-22T05:05:58.155Z,1025.85
2019-02-22T05:06:58.128Z,1025.86
2019-02-22T05:07:58.103Z,1025.92
2019-02-22T05:08:58.078Z,1025.89
2019-02-22T05:09:58.066Z,1025.97
2019-02-22T05:10:58.037Z,1025.99
2019-02-22T05:12:10.035Z,1026.08
2019-02-22T05:12:57.989Z,1026.10
2019-02-22T05:13:57.967Z,1026.21
2019-02-22T05:14:57.951Z,1026.17
2019-02-22T05:15:57.922Z,1026.17
2019-02-22T05:16:57.898Z,1026.19
2019-02-22T05:17:57.875Z,1026.24
2019-02-22T05:18:57.851Z,1026.21
2019-02-22T05:19:57.826Z,1026.27
2019-02-22T05:20:57.808Z,1026.37
2019-02-22T05:21:57.784Z,1026.34
2019-02-22T05:23:03.872Z,1026.32
2019-02-22T05:23:57.733Z,1026.39
2019-02-22T05:24:57.721Z,1026.41
2019-02-22T05:25:57.689Z,1026.44
2019-02-22T05:26:57.665Z,1026.45
2019-02-22T05:27:57.641Z,1026.47
2019-02-22T05:28:57.622Z,1026.46
2019-02-22T05:29:57.591Z,1026.53
2019-02-22T05:30:57.573Z,1026.47
2019-02-22T05:31:57.553Z,1026.54
2019-02-22T05:32:57.584Z,1026.58
2019-02-22T05:33:57.499Z,1026.56
2019-02-22T05:34:57.477Z,1026.61
2019-02-22T05:35:57.454Z,1026.61
2019-02-22T05:36:57.431Z,1026.64
2019-02-22T05:37:57.414Z,1026.66
2019-02-22T05:38:57.386Z,1026.67
2019-02-22T05:39:57.363Z,1026.68
2019-02-22T05:40:57.336Z,1026.66
2019-02-22T05:41:57.314Z,1026.72
2019-02-22T05:42:57.297Z,1026.68
2019-02-22T05:43:57.270Z,1026.71
2019-02-22T05:44:57.248Z,1026.73
2019-02-22T05:45:57.222Z,1026.72
2019-02-22T05:47:00.296Z,1026.79
2019-02-22T05:47:57.173Z,1026.83
2019-02-22T05:48:57.157Z,1026.90
2019-02-22T05:49:57.129Z,1026.88
2019-02-22T05:50:57.113Z,1026.91
2019-02-22T05:51:57.081Z,1026.95
2019-02-22T05:52:57.070Z,1026.98
2019-02-22T05:53:57.038Z,1027.04
2019-02-22T05:54:57.006Z,1027.08
2019-02-22T05:55:56.983Z,1027.08
2019-02-22T05:56:56.963Z,1027.11
2019-02-22T05:57:56.939Z,1027.18
2019-02-22T05:58:56.919Z,1027.19
2019-02-22T05:59:56.893Z,1027.19
2019-02-22T06:00:56.882Z,1027.22
2019-02-22T06:01:56.846Z,1027.24
2019-02-22T06:02:56.820Z,1027.35
2019-02-22T06:03:56.799Z,1027.35
2019-02-22T06:04:56.776Z,1027.39
2019-02-22T06:05:56.765Z,1027.41
2019-02-22T06:06:56.729Z,1027.46
2019-02-22T06:07:56.715Z,1027.57
2019-02-22T06:08:56.687Z,1027.60
2019-02-22T06:09:56.656Z,1027.66
2019-02-22T06:10:56.637Z,1027.71
2019-02-22T06:11:56.610Z,1027.75
2019-02-22T06:12:56.584Z,1027.78
2019-02-22T06:13:56.560Z,1027.87
2019-02-22T06:14:56.541Z,1027.89
2019-02-22T06:15:56.517Z,1027.97
2019-02-22T06:16:56.493Z,1028.02
2019-02-22T06:17:56.472Z,1028.06
2019-02-22T06:18:56.445Z,1028.09
2019-02-22T06:19:56.425Z,1028.11
2019-02-22T06:20:56.400Z,1028.21
2019-02-22T06:21:56.382Z,1028.25
2019-02-22T06:22:56.355Z,1028.19
2019-02-22T06:23:56.330Z,1028.22
2019-02-22T06:24:56.316Z,1028.28
2019-02-22T06:25:56.282Z,1028.34
2019-02-22T06:26:56.256Z,1028.34
2019-02-22T06:27:56.235Z,1028.43
2019-02-22T06:28:56.212Z,1028.41
2019-02-22T06:29:56.185Z,1028.52
2019-02-22T06:30:56.161Z,1028.52
2019-02-22T06:31:56.141Z,1028.56
2019-02-22T06:32:56.114Z,1028.63
2019-02-22T06:33:56.094Z,1028.64
2019-02-22T06:34:56.070Z,1028.68
2019-02-22T06:35:56.047Z,1028.71
2019-02-22T06:37:01.887Z,1028.72
2019-02-22T06:37:56.000Z,1028.79
2019-02-22T06:38:55.978Z,1028.83
2019-02-22T06:39:55.954Z,1028.81
2019-02-22T06:40:55.935Z,1028.89
2019-02-22T06:41:55.906Z,1028.86
2019-02-22T06:42:55.886Z,1028.89
2019-02-22T06:43:55.858Z,1028.93
2019-02-22T06:44:55.846Z,1028.94
2019-02-22T06:45:55.809Z,1029.03
2019-02-22T06:46:55.785Z,1029.03
2019-02-22T06:47:55.762Z,1029.07
2019-02-22T06:48:55.736Z,1029.12
2019-02-22T06:49:55.714Z,1029.11
2019-02-22T06:50:55.693Z,1029.18
2019-02-22T06:51:55.666Z,1029.20
2019-02-22T06:52:55.643Z,1029.26
2019-02-22T06:53:55.630Z,1029.24
2019-02-22T06:54:55.594Z,1029.29
2019-02-22T06:55:55.576Z,1029.34
2019-02-22T06:56:55.549Z,1029.36
2019-02-22T06:57:55.526Z,1029.36
2019-02-22T06:58:55.503Z,1029.41
2019-02-22T06:59:55.478Z,1029.45
2019-02-22T07:00:55.454Z,1029.49
2019-02-22T07:01:55.428Z,1029.53
2019-02-22T07:02:55.408Z,1029.54
2019-02-22T07:03:55.382Z,1029.56
2019-02-22T07:04:55.365Z,1029.60
2019-02-22T07:05:55.334Z,1029.66
2019-02-22T07:06:55.311Z,1029.71
2019-02-22T07:07:56.888Z,1029.73
2019-02-22T07:08:55.264Z,1029.74
2019-02-22T07:09:55.236Z,1029.76
2019-02-22T07:10:55.216Z,1029.84
2019-02-22T07:11:55.192Z,1029.88
2019-02-22T07:12:56.891Z,1029.92
2019-02-22T07:13:55.146Z,1029.89
2019-02-22T07:14:55.126Z,1029.94
2019-02-22T07:15:55.099Z,1029.96
2019-02-22T07:16:55.070Z,1029.98
2019-02-22T07:17:55.051Z,1030.02
2019-02-22T07:18:55.023Z,1030.04
2019-02-22T07:19:55.001Z,1030.15
2019-02-22T07:20:54.974Z,1030.17
2019-02-22T07:21:54.962Z,1030.17
2019-02-22T07:22:54.932Z,1030.20
2019-02-22T07:23:54.907Z,1030.25
2019-02-22T07:24:54.880Z,1030.23
2019-02-22T07:25:54.858Z,1030.26
2019-02-22T07:26:54.831Z,1030.34
2019-02-22T07:27:54.813Z,1030.39
2019-02-22T07:28:54.784Z,1030.38
2019-02-22T07:29:54.765Z,1030.45
2019-02-22T07:30:54.738Z,1030.49
2019-02-22T07:32:05.384Z,1030.50
2019-02-22T07:32:54.705Z,1030.51
2019-02-22T07:33:54.670Z,1030.63
2019-02-22T07:34:54.646Z,1030.63
2019-02-22T07:35:54.619Z,1030.62
2019-02-22T07:36:54.602Z,1030.68
2019-02-22T07:37:54.575Z,1030.70
2019-02-22T07:38:54.548Z,1030.68
2019-02-22T07:39:54.523Z,1030.71
2019-02-22T07:40:54.497Z,1030.68
2019-02-22T07:41:54.479Z,1030.66
2019-02-22T07:42:54.450Z,1030.74
2019-02-22T07:43:54.427Z,1030.67
2019-02-22T07:44:54.409Z,1030.80
2019-02-22T07:45:54.379Z,1030.81
2019-02-22T07:46:54.357Z,1030.79
2019-02-22T07:47:54.342Z,1030.90
2019-02-22T07:48:54.307Z,1030.93
2019-02-22T07:49:54.286Z,1030.99
2019-02-22T07:50:58.062Z,1030.99
2019-02-22T07:51:54.235Z,1030.91
2019-02-22T07:52:54.219Z,1030.94
2019-02-22T07:53:54.189Z,1030.98
2019-02-22T07:54:54.168Z,1031.01
2019-02-22T07:55:54.149Z,1031.01
2019-02-22T07:56:54.131Z,1031.04
2019-02-22T07:57:54.091Z,1031.11
2019-02-22T07:58:54.076Z,1031.23
2019-02-22T07:59:54.047Z,1031.23
2019-02-22T08:00:54.022Z,1031.25
2019-02-22T08:01:53.998Z,1031.26
2019-02-22T08:02:53.976Z,1031.26
2019-02-22T08:03:53.947Z,1031.26
2019-02-22T08:04:53.926Z,1031.34
2019-02-22T08:05:53.906Z,1031.36
2019-02-22T08:06:53.875Z,1031.44
2019-02-22T08:07:53.857Z,1031.43
2019-02-22T08:08:53.829Z,1031.47
2019-02-22T08:09:53.805Z,1031.48
2019-02-22T08:10:53.802Z,1031.54
2019-02-22T08:11:53.761Z,1031.51
2019-02-22T08:12:53.743Z,1031.58
2019-02-22T08:13:53.713Z,1031.62
2019-02-22T08:14:53.689Z,1031.62
2019-02-22T08:15:53.666Z,1031.66
2019-02-22T08:16:53.644Z,1031.69
2019-02-22T08:17:53.620Z,1031.60
2019-02-22T08:19:01.489Z,1031.68
2019-02-22T08:19:53.567Z,1031.68
2019-02-22T08:20:53.545Z,1031.82
2019-02-22T08:21:53.518Z,1031.80
2019-02-22T08:22:53.495Z,1031.85
2019-02-22T08:23:53.473Z,1031.84
2019-02-22T08:24:53.449Z,1031.93
2019-02-22T08:25:53.421Z,1031.93
2019-02-22T08:26:53.402Z,1031.91
2019-02-22T08:27:54.451Z,1032.01
2019-02-22T08:28:53.355Z,1032.00
2019-02-22T08:29:53.327Z,1031.97
2019-02-22T08:30:53.305Z,1031.99
2019-02-22T08:31:53.287Z,1032.03
2019-02-22T08:32:53.262Z,1032.11
2019-02-22T08:33:53.242Z,1032.03
2019-02-22T08:34:53.211Z,1032.11
2019-02-22T08:35:53.191Z,1032.15
2019-02-22T08:36:53.159Z,1032.16
2019-02-22T08:37:53.140Z,1032.20
2019-02-22T08:38:53.118Z,1032.25
2019-02-22T08:39:58.476Z,1032.29
2019-02-22T08:40:53.069Z,1032.22
2019-02-22T08:41:53.046Z,1032.33
2019-02-22T08:42:53.017Z,1032.41
2019-02-22T08:43:52.997Z,1032.57
2019-02-22T08:44:52.970Z,1032.70
2019-02-22T08:45:52.944Z,1032.76
2019-02-22T08:46:52.927Z,1032.76
2019-02-22T08:47:52.905Z,1032.81
2019-02-22T08:48:52.871Z,1032.83
2019-02-22T08:49:52.853Z,1032.83
2019-02-22T08:50:52.826Z,1032.88
2019-02-22T08:51:52.801Z,1032.90
2019-02-22T08:52:52.795Z,1032.91
2019-02-22T08:53:52.761Z,1033.01
2019-02-22T08:54:52.740Z,1033.00
2019-02-22T08:55:52.710Z,1033.03
2019-02-22T08:56:52.687Z,1033.05
2019-02-22T08:57:52.680Z,1033.04
2019-02-22T08:58:52.644Z,1033.09
2019-02-22T08:59:52.633Z,1033.13
2019-02-22T09:00:52.599Z,1033.16
2019-02-22T09:01:52.607Z,1033.19
2019-02-22T09:02:52.554Z,1033.20
2019-02-22T09:03:52.533Z,1033.22
2019-02-22T09:04:52.512Z,1033.17
2019-02-22T09:05:52.489Z,1033.06
2019-02-22T09:06:52.571Z,1033.20
2019-02-22T09:07:52.444Z,1033.21
2019-02-22T09:08:52.423Z,1033.19
2019-02-22T09:09:52.404Z,1033.20
2019-02-22T09:11:00.229Z,1033.30
2019-02-22T09:11:52.362Z,1033.33
2019-02-22T09:12:52.336Z,1033.32
2019-02-22T09:13:52.319Z,1033.33
2019-02-22T09:14:52.300Z,1033.26
2019-02-22T09:15:52.281Z,1033.31
2019-02-22T09:16:52.253Z,1033.29
2019-02-22T09:17:52.237Z,1033.34
2019-02-22T09:18:52.212Z,1033.33
2019-02-22T09:19:52.188Z,1033.36
2019-02-22T09:20:52.167Z,1033.36
2019-02-22T09:21:52.152Z,1033.37
2019-02-22T09:22:52.127Z,1033.45
2019-02-22T09:23:52.123Z,1033.44
2019-02-22T09:24:52.091Z,1033.50
2019-02-22T09:25:52.061Z,1033.58
2019-02-22T09:26:52.040Z,1033.59
2019-02-22T09:27:52.020Z,1033.71
2019-02-22T09:28:51.994Z,1033.76
2019-02-22T09:29:58.947Z,1033.82
2019-02-22T09:30:51.954Z,1033.81
2019-02-22T09:31:51.948Z,1033.91
2019-02-22T09:32:51.912Z,1033.89
2019-02-22T09:33:51.902Z,1033.91
2019-02-22T09:34:51.872Z,1033.96
2019-02-22T09:35:51.852Z,1033.92
2019-02-22T09:36:51.839Z,1033.96
2019-02-22T09:37:51.814Z,1034.04
2019-02-22T09:38:51.789Z,1034.02
2019-02-22T09:39:51.772Z,1034.02
2019-02-22T09:40:51.752Z,1033.98
2019-02-22T09:41:51.731Z,1034.02
2019-02-22T09:42:51.724Z,1034.08
2019-02-22T09:43:55.373Z,1034.11
2019-02-22T09:44:51.676Z,1034.10
2019-02-22T09:45:51.663Z,1034.18
2019-02-22T09:46:51.645Z,1034.22
2019-02-22T09:47:51.625Z,1034.18
2019-02-22T09:48:51.602Z,1034.22
2019-02-22T09:49:51.588Z,1034.19
2019-02-22T09:50:51.575Z,1034.28
2019-02-22T09:51:51.561Z,1034.30
2019-02-22T09:52:51.538Z,1034.63
2019-02-22T09:53:51.523Z,1034.92
2019-02-22T09:54:51.508Z,1034.98
2019-02-22T09:55:51.489Z,1035.13
2019-02-22T09:56:51.765Z,1035.21
2019-02-22T09:57:51.468Z,1035.21
2019-02-22T09:58:51.440Z,1035.29
2019-02-22T09:59:51.427Z,1035.39
2019-02-22T10:00:51.408Z,1035.50
2019-02-22T10:01:51.396Z,1035.54
2019-02-22T10:02:51.379Z,1035.59
2019-02-22T10:03:51.365Z,1035.57
2019-02-22T10:04:54.913Z,1035.45
2019-02-22T10:05:51.336Z,1035.47
2019-02-22T10:06:51.320Z,1035.50
2019-02-22T10:07:51.313Z,1035.79
2019-02-22T10:08:51.293Z,1035.85
2019-02-22T10:09:51.282Z,1035.85
2019-02-22T10:10:51.280Z,1035.84
2019-02-22T10:11:51.258Z,1035.92
2019-02-22T10:12:51.243Z,1035.98
2019-02-22T10:13:51.227Z,1036.00
2019-02-22T10:14:51.216Z,1036.05
2019-02-22T10:15:51.202Z,1036.11
2019-02-22T10:16:51.188Z,1036.12
2019-02-22T10:17:51.184Z,1036.03
2019-02-22T10:18:51.171Z,1036.11
2019-02-22T10:19:51.155Z,1036.10
2019-02-22T10:20:51.161Z,1036.13
2019-02-22T10:21:51.127Z,1036.13
2019-02-22T10:22:51.113Z,1036.09
2019-02-22T10:23:51.099Z,1035.99
2019-02-22T10:24:51.093Z,1035.19
2019-02-22T10:25:51.073Z,1034.72
2019-02-22T10:26:51.062Z,1034.65
2019-02-22T10:27:51.052Z,1034.68
2019-02-22T10:28:51.031Z,1034.68
2019-02-22T10:29:51.017Z,1034.64
2019-02-22T10:30:51.007Z,1034.69
2019-02-22T10:31:50.995Z,1034.68
2019-02-22T10:32:50.977Z,1034.74
2019-02-22T10:33:50.962Z,1034.77
2019-02-22T10:34:50.950Z,1034.68
2019-02-22T10:35:50.940Z,1034.65
2019-02-22T10:36:50.925Z,1034.65
2019-02-22T10:37:50.905Z,1034.70
2019-02-22T10:38:50.895Z,1034.70
2019-02-22T10:39:50.879Z,1034.67
2019-02-22T10:40:50.861Z,1034.67
2019-02-22T10:41:50.846Z,1034.67
2019-02-22T10:42:50.836Z,1034.65
2019-02-22T10:43:50.813Z,1034.64
2019-02-22T10:44:50.955Z,1034.64
2019-02-22T10:45:50.791Z,1034.61
2019-02-22T10:46:50.773Z,1034.63
2019-02-22T10:47:50.761Z,1034.71
2019-02-22T10:48:50.741Z,1034.71
2019-02-22T10:49:50.722Z,1034.72
2019-02-22T10:50:50.707Z,1034.62
2019-02-22T10:51:50.700Z,1034.76
2019-02-22T10:53:01.477Z,1034.72
2019-02-22T10:53:50.665Z,1034.77
2019-02-22T10:54:50.655Z,1034.71
2019-02-22T10:55:50.628Z,1034.68
2019-02-22T10:56:51.687Z,1034.69
2019-02-22T10:57:50.603Z,1034.64
2019-02-22T10:58:50.579Z,1034.63
2019-02-22T10:59:50.588Z,1034.61
2019-02-22T11:00:50.550Z,1034.68
2019-02-22T11:01:50.531Z,1034.69
2019-02-22T11:02:50.512Z,1034.65
2019-02-22T11:03:50.500Z,1034.64
2019-02-22T11:04:50.483Z,1034.63
2019-02-22T11:05:50.463Z,1034.71
2019-02-22T11:06:50.444Z,1034.73
2019-02-22T11:07:50.431Z,1034.71
2019-02-22T11:08:50.415Z,1034.72
2019-02-22T11:09:50.399Z,1034.73
2019-02-22T11:10:50.381Z,1034.74
2019-02-22T11:11:50.360Z,1034.74
2019-02-22T11:12:50.351Z,1034.84
2019-02-22T11:13:50.325Z,1034.81
2019-02-22T11:14:50.309Z,1034.80
2019-02-22T11:15:50.296Z,1034.82
2019-02-22T11:16:50.275Z,1034.78
2019-02-22T11:17:50.254Z,1034.78
2019-02-22T11:18:50.247Z,1034.83
2019-02-22T11:19:50.225Z,1034.86
2019-02-22T11:20:50.205Z,1034.86
2019-02-22T11:21:50.187Z,1034.89
2019-02-22T11:22:50.169Z,1034.89
2019-02-22T11:23:50.154Z,1034.90
2019-02-22T11:24:50.129Z,1034.93
2019-02-22T11:25:50.112Z,1034.96
2019-02-22T11:26:50.094Z,1034.98
2019-02-22T11:27:50.081Z,1034.97
2019-02-22T11:28:50.064Z,1034.95
2019-02-22T11:29:50.041Z,1034.96
2019-02-22T11:30:50.023Z,1034.97
2019-02-22T11:31:50.006Z,1034.98
2019-02-22T11:32:49.987Z,1035.00
2019-02-22T11:33:49.967Z,1034.99
2019-02-22T11:34:49.953Z,1034.99
2019-02-22T11:35:49.929Z,1034.96
2019-02-22T11:36:49.916Z,1034.94
2019-02-22T11:37:49.894Z,1034.98
2019-02-22T11:38:49.872Z,1034.94
2019-02-22T11:39:49.854Z,1034.94
2019-02-22T11:40:49.834Z,1034.98
2019-02-22T11:41:49.818Z,1035.00
2019-02-22T11:42:49.801Z,1035.00
2019-02-22T11:43:49.780Z,1034.99
2019-02-22T11:44:49.761Z,1034.96
2019-02-22T11:45:50.041Z,1035.01
2019-02-22T11:46:49.722Z,1035.01
2019-02-22T11:47:49.709Z,1035.02
2019-02-22T11:48:49.688Z,1035.00
2019-02-22T11:49:49.666Z,1035.08
2019-02-22T11:50:49.654Z,1035.12
2019-02-22T11:51:49.625Z,1035.11
2019-02-22T11:52:49.609Z,1035.10
2019-02-22T11:53:49.589Z,1035.11
2019-02-22T11:54:49.568Z,1035.12
2019-02-22T11:55:49.545Z,1035.17
2019-02-22T11:57:49.514Z,1035.19
2019-02-22T11:58:49.494Z,1035.24
2019-02-22T11:59:49.474Z,1035.19
2019-02-22T12:00:49.449Z,1035.21
2019-02-22T12:01:49.426Z,1035.23
2019-02-22T12:02:49.411Z,1035.25
2019-02-22T12:03:49.389Z,1035.26
2019-02-22T12:04:49.375Z,1035.25
2019-02-22T12:05:49.348Z,1035.28